sim
Sign-in with your pilot id or email,
or register
Callsign
Passwort

Schedule Details

Flight Number: DLH1615
Departure: Warsaw Chopin Airport (EPWA) at 15:50
Arrival: Munich Airport (EDDM) at 17:30
Route: Lufthansa Passenger Schedule. Enter filed route here before submitting Pirep.

Weather Information
Getting current METAR information for EPWA 251000Z 15014KT 9999 FEW016 22/16 Q1002 NOSIG
Getting current METAR information for EDDM 251020Z 26005KT 9999 -RA FEW012 SCT020 BKN040 10/08 Q1002 NOSIG

Schedule Frequency

Route Map